^^
Grace C. Lehan Memorial Weather Station Historical Data
Daily Summary for June 28, 2022 Units:  English    Metric   Both
Daily Weekly Monthly Yearly
  High: Low: Average:
Temperature: 80.4 °F 59.7 °F 70.1 °F
Dew Point: 61.9 °F 54.9 °F 57.8 °F
Humidity: 90% 46.3% 67%
Wind Speed: 3.1mph 0mph 0.4mph
Wind Gust: 13mph - -
Wind- - West
Pressure: 30.14 in 29.98 in -
Precipitation: 0.00 in    
 
 
Tabular Data for June 28, 2022
Time Temperature Dew Point Pressure Wind Wind Speed Wind Gust Humidity Rainfall Rate (Hourly) solar
00:00 64 °F 59.1 °F 29.98 in Calm     84% 0.00 in 0 W/m2
00:09 63.9 °F 59 °F 29.98 in Calm     84% 0.00 in 0 W/m2
00:14 63.9 °F 58.6 °F 29.98 in Calm     83% 0.00 in 0 W/m2
00:19 63.8 °F 58.5 °F 29.98 in Calm     83% 0.00 in 0 W/m2
00:24 63.7 °F 58.4 °F 29.98 in Calm     83% 0.00 in 0 W/m2
00:29 63.6 °F 58.3 °F 29.98 in Calm     83% 0.00 in 0 W/m2
00:34 63.5 °F 58.2 °F 29.98 in Calm     83% 0.00 in 0 W/m2
00:39 63.3 °F 58.1 °F 29.99 in Calm     83% 0.00 in 0 W/m2
00:44 63.2 °F 57.9 °F 29.99 in Calm     83% 0.00 in 0 W/m2
00:49 63 °F 57.7 °F 29.99 in Calm     83% 0.00 in 0 W/m2
00:54 62.8 °F 57.9 °F 29.99 in Calm     83.8% 0.00 in 0 W/m2
00:59 62.7 °F 57.8 °F 29.99 in Calm     84% 0.00 in 0 W/m2
01:04 62.5 °F 57.6 °F 29.99 in Calm     84% 0.00 in 0 W/m2
01:09 62.3 °F 57.7 °F 29.99 in Calm     84.9% 0.00 in 0 W/m2
01:14 62.1 °F 57.7 °F 29.99 in Calm     85.5% 0.00 in 0 W/m2
01:19 61.9 °F 57.8 °F 29.99 in Calm     86.6% 0.00 in 0 W/m2
01:24 61.6 °F 57.8 °F 29.99 in Calm     87.3% 0.00 in 0 W/m2
01:29 61.4 °F 57.8 °F 29.99 in Calm     88% 0.00 in 0 W/m2
01:34 61.1 °F 57.6 °F 30.00 in Calm     88.1% 0.00 in 0 W/m2
01:39 60.9 °F 57.7 °F 30.00 in Calm     89% 0.00 in 0 W/m2
01:44 60.8 °F 57.6 °F 29.99 in Calm     89.4% 0.00 in 0 W/m2
01:49 60.6 °F 57.6 °F 29.99 in West 0.3 mph 3 mph 90% 0.00 in 0 W/m2
01:54 60.4 °F 57.5 °F 30.00 in Calm   3 mph 90% 0.00 in 0 W/m2
01:59 60.2 °F 57 °F 30.00 in West 0.2 mph 3 mph 89% 0.00 in 0 W/m2
02:04 60.2 °F 56.6 °F 30.00 in Calm   3 mph 88% 0.00 in 0 W/m2
02:09 60.3 °F 56.4 °F 30.00 in Calm     87% 0.00 in 0 W/m2
02:14 60.4 °F 56.6 °F 30.00 in Calm     87% 0.00 in 0 W/m2
02:19 60.5 °F 56.4 °F 30.00 in Calm     86.4% 0.00 in 0 W/m2
02:24 60.5 °F 56.1 °F 30.00 in Calm     85.5% 0.00 in 0 W/m2
02:29 60.4 °F 55.7 °F 30.01 in Calm     84.4% 0.00 in 0 W/m2
02:34 60.5 °F 55.6 °F 30.01 in Calm     84% 0.00 in 0 W/m2
02:39 60.5 °F 55.7 °F 30.01 in Calm     84% 0.00 in 0 W/m2
02:44 60.5 °F 55.7 °F 30.01 in Calm     84% 0.00 in 0 W/m2
02:49 60.5 °F 55.6 °F 30.01 in Calm     83.8% 0.00 in 0 W/m2
02:54 60.6 °F 55.5 °F 30.02 in Calm     83.1% 0.00 in 0 W/m2
02:59 60.7 °F 55.6 °F 30.02 in Calm     83.3% 0.00 in 0 W/m2
03:04 60.7 °F 55.5 °F 30.02 in Calm     83% 0.00 in 0 W/m2
03:09 60.6 °F 55.6 °F 30.01 in Calm     83.5% 0.00 in 0 W/m2
03:14 60.5 °F 55.7 °F 30.01 in Calm     84% 0.00 in 0 W/m2
03:19 60.4 °F 55.5 °F 30.01 in Calm     83.8% 0.00 in 0 W/m2
03:24 60.3 °F 55.5 °F 30.01 in Calm     84% 0.00 in 0 W/m2
03:29 60.3 °F 55.4 °F 30.01 in Calm     84% 0.00 in 0 W/m2
03:34 60.2 °F 55.3 °F 30.02 in Calm     83.8% 0.00 in 0 W/m2
03:39 60.2 °F 55.1 °F 30.01 in Calm     83.3% 0.00 in 0 W/m2
03:44 60.2 °F 55 °F 30.01 in Calm     83% 0.00 in 0 W/m2
03:49 60.2 °F 55 °F 30.01 in Calm     83% 0.00 in 0 W/m2
03:54 60.2 °F 55 °F 30.01 in Calm     83% 0.00 in 0 W/m2
03:59 60.2 °F 55.3 °F 30.02 in Calm     83.7% 0.00 in 0 W/m2
04:00 60.2 °F 55.3 °F 30.01 in Calm     84% 0.00 in 0 W/m2
04:09 60.1 °F 55.2 °F 30.01 in Calm     84% 0.00 in 0 W/m2
04:14 60 °F 55.2 °F 30.02 in Calm     84.1% 0.00 in 0 W/m2
04:19 59.9 °F 55.1 °F 30.02 in Calm     84.1% 0.00 in 0 W/m2
04:24 59.9 °F 55.4 °F 30.02 in Calm     85% 0.00 in 0 W/m2
04:29 59.9 °F 55.3 °F 30.02 in Calm     85% 0.00 in 0 W/m2
04:34 59.8 °F 55.3 °F 30.02 in Calm     85% 0.00 in 0 W/m2
04:39 59.8 °F 55.3 °F 30.02 in Calm     85% 0.00 in 0 W/m2
04:44 59.8 °F 55.2 °F 30.02 in Calm     84.8% 0.00 in 0 W/m2
04:49 59.8 °F 55 °F 30.02 in Calm     84.1% 0.00 in 0 W/m2
04:54 59.8 °F 55 °F 30.03 in Calm     84.2% 0.00 in 0 W/m2
04:59 59.7 °F 54.9 °F 30.03 in Calm     84% 0.00 in 0 W/m2
05:04 59.7 °F 54.9 °F 30.03 in Calm     84% 0.00 in 0 W/m2
05:09 59.7 °F 54.9 °F 30.03 in Calm     84% 0.00 in 0 W/m2
05:14 59.7 °F 54.9 °F 30.04 in Calm     84% 0.00 in 0 W/m2
05:19 59.8 °F 55.3 °F 30.04 in Calm     85% 0.00 in 0 W/m2
05:24 59.9 °F 55.4 °F 30.04 in Calm     85% 0.00 in 0 W/m2
05:29 60 °F 55.7 °F 30.04 in Calm     85.8% 0.00 in 5 W/m2
05:34 60.1 °F 55.9 °F 30.04 in Calm     86% 0.00 in 7 W/m2
05:39 60.1 °F 55.9 °F 30.04 in Calm     86% 0.00 in 9 W/m2
05:44 60 °F 55.9 °F 30.04 in Calm     86.4% 0.00 in 11 W/m2
05:49 60 °F 56.2 °F 30.05 in Calm     87% 0.00 in 16 W/m2
05:54 60 °F 55.7 °F 30.05 in Calm   1 mph 85.5% 0.00 in 40 W/m2
05:59 60.1 °F 56.1 °F 30.05 in Calm   1 mph 86.4% 0.00 in 40 W/m2
06:04 60.3 °F 56.6 °F 30.05 in Calm   1 mph 87.4% 0.00 in 42 W/m2
06:09 60.4 °F 56.8 °F 30.06 in Calm     88% 0.00 in 42 W/m2
06:14 60.4 °F 56.6 °F 30.06 in Calm     87.3% 0.00 in 33 W/m2
06:19 60.5 °F 56.6 °F 30.06 in Calm     87% 0.00 in 46 W/m2
06:24 60.5 °F 56.7 °F 30.06 in Calm     87% 0.00 in 69 W/m2
06:29 60.7 °F 56.6 °F 30.06 in West 0.1 mph 3 mph 86.5% 0.00 in 69 W/m2
06:34 60.9 °F 56.5 °F 30.06 in Calm   3 mph 85.4% 0.00 in 74 W/m2
06:39 61.1 °F 56.6 °F 30.06 in West 0.4 mph 4 mph 85% 0.00 in 104 W/m2
06:44 61.4 °F 56.7 °F 30.06 in West 0.1 mph 4 mph 84.5% 0.00 in 234 W/m2
06:49 61.8 °F 57 °F 30.06 in Calm   4 mph 84.3% 0.00 in 109 W/m2
06:54 62.1 °F 56.9 °F 30.06 in Calm   4 mph 83% 0.00 in 91 W/m2
06:59 62.4 °F 57 °F 30.06 in West 0.2 mph 4 mph 82.4% 0.00 in 127 W/m2
07:04 62.6 °F 56.7 °F 30.06 in Calm   4 mph 81% 0.00 in 153 W/m2
07:09 62.8 °F 56.7 °F 30.07 in Calm   1 mph 80.5% 0.00 in 93 W/m2
07:14 62.9 °F 56.7 °F 30.07 in Calm   1 mph 80.1% 0.00 in 93 W/m2
07:19 63 °F 56.8 °F 30.07 in Calm   1 mph 80% 0.00 in 105 W/m2
07:24 63.1 °F 56.9 °F 30.07 in West 0.7 mph 4 mph 80.1% 0.00 in 218 W/m2
07:29 63.3 °F 56.9 °F 30.08 in West 0.5 mph 5 mph 79.5% 0.00 in 171 W/m2
07:34 63.5 °F 56.9 °F 30.08 in West 0.2 mph 5 mph 79% 0.00 in 155 W/m2
07:39 63.7 °F 57 °F 30.08 in West 0.2 mph 4 mph 78.6% 0.00 in 171 W/m2
07:44 63.9 °F 57.1 °F 30.07 in WNW 0.9 mph 7 mph 78.4% 0.00 in 167 W/m2
07:49 64.1 °F 57 °F 30.08 in WNW 0.8 mph 7 mph 77.8% 0.00 in 174 W/m2
07:54 64.3 °F 57.3 °F 30.08 in Calm   7 mph 78% 0.00 in 260 W/m2
07:59 64.7 °F 57.6 °F 30.08 in WNW 0.3 mph 7 mph 77.8% 0.00 in 227 W/m2
08:00 64.9 °F 57.9 °F 30.08 in Calm   7 mph 78% 0.00 in 227 W/m2
08:09 65.4 °F 58.1 °F 30.08 in WNW 0.1 mph 4 mph 77.4% 0.00 in 550 W/m2
08:14 66 °F 59 °F 30.08 in WNW 0.1 mph 4 mph 78.1% 0.00 in 564 W/m2
08:19 67 °F 59.7 °F 30.08 in WNW 0.3 mph 4 mph 77.5% 0.00 in 592 W/m2
08:24 68.1 °F 59.7 °F 30.08 in WNW 0.2 mph 4 mph 74.4% 0.00 in 635 W/m2
08:29 69.1 °F 60.2 °F 30.08 in Calm   4 mph 73.2% 0.00 in 663 W/m2
08:34 69.9 °F 60.6 °F 30.08 in Calm   4 mph 72.1% 0.00 in 789 W/m2
08:39 70.9 °F 60.7 °F 30.08 in WNW 0.7 mph 4 mph 70.2% 0.00 in 789 W/m2
08:44 71.6 °F 60.1 °F 30.08 in WNW 0.4 mph 4 mph 67.1% 0.00 in 397 W/m2
08:49 71.7 °F 59.8 °F 30.09 in Calm   4 mph 66.1% 0.00 in 288 W/m2
08:54 71.5 °F 59.9 °F 30.09 in WNW 1.3 mph 7 mph 66.7% 0.00 in 828 W/m2
08:59 71.3 °F 59.1 °F 30.08 in WNW 0.5 mph 7 mph 65.2% 0.00 in 810 W/m2
09:04 71.2 °F 59.3 °F 30.08 in WNW 0.6 mph 7 mph 66.1% 0.00 in 882 W/m2
09:09 71.2 °F 59.8 °F 30.08 in WNW 0.1 mph 4 mph 67.3% 0.00 in 896 W/m2
09:14 71.3 °F 59.2 °F 30.09 in WNW 1.3 mph 6 mph 65.6% 0.00 in 394 W/m2
09:19 71.3 °F 59.5 °F 30.09 in West 1.9 mph 10 mph 66.4% 0.00 in 942 W/m2
09:24 71.6 °F 60.3 °F 30.09 in Calm   10 mph 67.5% 0.00 in 942 W/m2
09:29 72 °F 60.3 °F 30.08 in West 0.6 mph 10 mph 66.6% 0.00 in 954 W/m2
09:34 72.3 °F 60.2 °F 30.08 in West 0.5 mph 10 mph 65.9% 0.00 in 954 W/m2
09:39 72.5 °F 60.1 °F 30.08 in WNW 0.6 mph 5 mph 65.1% 0.00 in 954 W/m2
09:44 72.5 °F 59.6 °F 30.08 in WNW 1.1 mph 7 mph 63.8% 0.00 in 508 W/m2
09:49 72.5 °F 59.3 °F 30.08 in WNW 1.9 mph 7 mph 63.3% 0.00 in 965 W/m2
09:54 72.6 °F 59.3 °F 30.08 in WNW 2 mph 7 mph 63% 0.00 in 965 W/m2
09:59 72.5 °F 60 °F 30.08 in WNW 0.4 mph 7 mph 64.7% 0.00 in 937 W/m2
10:04 72.8 °F 60.3 °F 30.08 in WNW 0.3 mph 7 mph 64.9% 0.00 in 837 W/m2
10:09 73 °F 59.6 °F 30.08 in Calm   5 mph 62.9% 0.00 in 1020 W/m2
10:14 73 °F 60.1 °F 30.08 in Calm   5 mph 63.9% 0.00 in 1157 W/m2
10:19 73.4 °F 60 °F 30.08 in WNW 0.6 mph 7 mph 62.9% 0.00 in 1160 W/m2
10:24 73.7 °F 60.6 °F 30.08 in WNW 0.6 mph 7 mph 63.5% 0.00 in 1160 W/m2
10:29 74.3 °F 60.8 °F 30.09 in Calm   7 mph 62.7% 0.00 in 942 W/m2
10:34 74.8 °F 60.6 °F 30.09 in WNW 0.4 mph 7 mph 61.1% 0.00 in 942 W/m2
10:39 75.1 °F 59.8 °F 30.09 in NNW 0.3 mph 5 mph 59.1% 0.00 in 916 W/m2
10:44 75.2 °F 60.7 °F 30.09 in Calm   5 mph 60.5% 0.00 in 907 W/m2
10:49 75.6 °F 60.5 °F 30.09 in NNW 0.2 mph 5 mph 59.6% 0.00 in 954 W/m2
10:54 75.8 °F 60.2 °F 30.09 in Calm   5 mph 58.4% 0.00 in 1083 W/m2
10:59 76.1 °F 60.7 °F 30.09 in NNW 0.1 mph 5 mph 59.1% 0.00 in 1127 W/m2
11:04 76.3 °F 61.2 °F 30.09 in NNE 0.4 mph 5 mph 59.5% 0.00 in 1176 W/m2
11:09 76.6 °F 61.2 °F 30.09 in NE 0.2 mph 4 mph 58.8% 0.00 in 1176 W/m2
11:14 76.5 °F 59.3 °F 30.09 in NE 0.6 mph 4 mph 55.2% 0.00 in 213 W/m2
11:19 76 °F 59.7 °F 30.09 in Calm   4 mph 57% 0.00 in 1025 W/m2
11:24 75.8 °F 60.2 °F 30.09 in NNE 0.3 mph 4 mph 58.5% 0.00 in 1013 W/m2
11:29 76.3 °F 61.9 °F 30.09 in NNE 0.1 mph 4 mph 60.9% 0.00 in 1065 W/m2
11:34 76.9 °F 60.6 °F 30.09 in Calm   4 mph 57.2% 0.00 in 1090 W/m2
11:39 77.2 °F 60.9 °F 30.09 in Calm     57.2% 0.00 in 1085 W/m2
11:44 77.4 °F 61.4 °F 30.09 in North 0.5 mph 3 mph 57.8% 0.00 in 1078 W/m2
11:49 77.3 °F 59 °F 30.09 in NNW 0.3 mph 5 mph 53.4% 0.00 in 1069 W/m2
11:54 77.1 °F 59.3 °F 30.09 in ENE 1.2 mph 5 mph 54.3% 0.00 in 1151 W/m2
11:59 77 °F 59.1 °F 30.09 in NE 0.2 mph 5 mph 54% 0.00 in 1155 W/m2
12:09 76.3 °F 58.9 °F 30.09 in East 1.2 mph 6 mph 54.9% 0.00 in 1114 W/m2
12:14 76.1 °F 57.6 °F 30.09 in ENE 1.3 mph 6 mph 52.7% 0.00 in 1132 W/m2
12:19 76.1 °F 58.2 °F 30.10 in NNE 0.7 mph 6 mph 53.9% 0.00 in 1209 W/m2
12:24 76.2 °F 58.7 °F 30.10 in North 1.2 mph 9 mph 54.6% 0.00 in 230 W/m2
12:29 75.8 °F 58.4 °F 30.09 in NNW 0.6 mph 9 mph 54.7% 0.00 in 156 W/m2
12:34 75.4 °F 59.4 °F 30.09 in NNW 0.2 mph 9 mph 57.7% 0.00 in 1086 W/m2
12:39 75.5 °F 57.5 °F 30.09 in NNW 0.3 mph 3 mph 53.5% 0.00 in 1081 W/m2
12:44 75.9 °F 59 °F 30.09 in NNW 0.2 mph 3 mph 55.8% 0.00 in 1139 W/m2
12:49 76.4 °F 58.5 °F 30.09 in NNW 0.1 mph 3 mph 53.9% 0.00 in 1139 W/m2
12:54 76.6 °F 59.4 °F 30.10 in NW 1 mph 7 mph 55.4% 0.00 in 1116 W/m2
12:59 77 °F 58.8 °F 30.10 in Calm   7 mph 53.5% 0.00 in 1102 W/m2
13:04 77.2 °F 58.7 °F 30.09 in Calm   7 mph 52.8% 0.00 in 1102 W/m2
13:09 77.3 °F 58.3 °F 30.09 in WNW 0.3 mph 3 mph 51.9% 0.00 in 1102 W/m2
13:14 77 °F 58 °F 30.10 in WNW 0.6 mph 3 mph 52% 0.00 in 1078 W/m2
13:19 76.9 °F 59.3 °F 30.10 in WNW 0.1 mph 3 mph 54.6% 0.00 in 1088 W/m2
13:24 77.1 °F 59.2 °F 30.09 in WSW 1.1 mph 6 mph 54% 0.00 in 1134 W/m2
13:29 77.3 °F 59.3 °F 30.09 in WSW 0.3 mph 6 mph 53.8% 0.00 in 1102 W/m2
13:34 77.5 °F 59.8 °F 30.09 in WSW 0.5 mph 6 mph 54.4% 0.00 in 1148 W/m2
13:39 77.9 °F 59.7 °F 30.09 in West 0.8 mph 5 mph 53.7% 0.00 in 1102 W/m2
13:44 78.2 °F 59.6 °F 30.09 in WNW 0.5 mph 5 mph 52.7% 0.00 in 1109 W/m2
13:49 78.3 °F 58.5 °F 30.09 in ENE 1 mph 5 mph 50.6% 0.00 in 1088 W/m2
13:54 78.1 °F 57.1 °F 30.09 in ENE 0.4 mph 5 mph 48.6% 0.00 in 1085 W/m2
13:59 77.6 °F 57.1 °F 30.09 in ENE 0.1 mph 5 mph 49.3% 0.00 in 1167 W/m2
14:04 77.2 °F 58 °F 30.09 in NW 0.6 mph 5 mph 51.4% 0.00 in 1167 W/m2
14:09 77 °F 58.9 °F 30.09 in WNW 0.6 mph 4 mph 53.6% 0.00 in 171 W/m2
14:14 76.8 °F 59.5 °F 30.09 in WNW 0.3 mph 4 mph 55.1% 0.00 in 1107 W/m2
14:19 77.3 °F 60.3 °F 30.09 in WNW 1.7 mph 7 mph 55.8% 0.00 in 1097 W/m2
14:24 78.1 °F 58.9 °F 30.09 in West 1.1 mph 7 mph 51.8% 0.00 in 1097 W/m2
14:29 78.7 °F 59.5 °F 30.09 in West 1.3 mph 7 mph 51.8% 0.00 in 1074 W/m2
14:34 79.4 °F 60.3 °F 30.09 in WSW 2.3 mph 9 mph 52.2% 0.00 in 1014 W/m2
14:39 79.9 °F 60.5 °F 30.09 in WNW 0.4 mph 9 mph 51.6% 0.00 in 991 W/m2
14:44 80.4 °F 60.1 °F 30.09 in West 1.4 mph 9 mph 50.1% 0.00 in 979 W/m2
14:49 80.4 °F 58.7 °F 30.09 in WNW 1.4 mph 9 mph 47.7% 0.00 in 974 W/m2
14:54 80.1 °F 58.5 °F 30.09 in West 0.7 mph 9 mph 47.8% 0.00 in 990 W/m2
14:59 79.8 °F 58.7 °F 30.09 in Calm   9 mph 48.5% 0.00 in 998 W/m2
15:04 79.9 °F 59.6 °F 30.09 in NW 1.4 mph 10 mph 50% 0.00 in 984 W/m2
15:09 80.1 °F 58.8 °F 30.09 in WNW 3.1 mph 10 mph 48.3% 0.00 in 991 W/m2
15:14 80 °F 58.6 °F 30.09 in WSW 1.8 mph 10 mph 48% 0.00 in 990 W/m2
15:19 79.7 °F 58.7 °F 30.09 in West 0.1 mph 10 mph 48.8% 0.00 in 935 W/m2
15:24 79.6 °F 60.7 °F 30.09 in West 0.4 mph 10 mph 52.4% 0.00 in 942 W/m2
15:29 79.9 °F 60 °F 30.09 in West 0.9 mph 10 mph 50.6% 0.00 in 933 W/m2
15:34 80.1 °F 59.3 °F 30.10 in WNW 2.1 mph 10 mph 49.2% 0.00 in 889 W/m2
15:39 80.1 °F 58.2 °F 30.09 in NW 0.1 mph 9 mph 47.3% 0.00 in 881 W/m2
15:44 80 °F 58.7 °F 30.09 in NNW 1.4 mph 9 mph 48.3% 0.00 in 853 W/m2
15:49 80.1 °F 58.5 °F 30.09 in North 0.5 mph 9 mph 47.9% 0.00 in 854 W/m2
15:54 79.9 °F 57.4 °F 30.09 in Calm   9 mph 46.3% 0.00 in 91 W/m2
15:59 79.4 °F 58.6 °F 30.09 in NNW 0.8 mph 9 mph 48.9% 0.00 in 807 W/m2
16:00 79.3 °F 59.1 °F 30.09 in Calm   9 mph 50% 0.00 in 791 W/m2
16:09 79.4 °F 58.4 °F 30.09 in WNW 0.5 mph 2 mph 48.7% 0.00 in 770 W/m2
16:14 79.5 °F 58.2 °F 30.09 in WNW 0.6 mph 4 mph 48.1% 0.00 in 763 W/m2
16:19 79.4 °F 57.9 °F 30.09 in WNW 0.3 mph 4 mph 47.9% 0.00 in 84 W/m2
16:24 79.1 °F 57.4 °F 30.09 in WNW 0.1 mph 4 mph 47.3% 0.00 in 100 W/m2
16:29 78.9 °F 58.2 °F 30.08 in WNW 0.3 mph 4 mph 49.1% 0.00 in 93 W/m2
16:34 78.9 °F 58.3 °F 30.08 in WNW 0.6 mph 4 mph 49.3% 0.00 in 58 W/m2
16:39 78.9 °F 58 °F 30.08 in NW 1.3 mph 5 mph 48.7% 0.00 in 54 W/m2
16:44 78.8 °F 57.5 °F 30.08 in NW 1.9 mph 7 mph 48% 0.00 in 54 W/m2
16:49 78.7 °F 57.5 °F 30.08 in WNW 0.4 mph 7 mph 48.2% 0.00 in 51 W/m2
16:54 78.5 °F 56.3 °F 30.08 in Calm   7 mph 46.5% 0.00 in 47 W/m2
16:59 78.3 °F 56.8 °F 30.08 in WNW 0.2 mph 7 mph 47.6% 0.00 in 47 W/m2
17:04 78.4 °F 57.3 °F 30.08 in WNW 1.4 mph 7 mph 48.4% 0.00 in 47 W/m2
17:09 78.5 °F 57 °F 30.08 in NW 1.5 mph 6 mph 47.6% 0.00 in 47 W/m2
17:14 78.6 °F 57.2 °F 30.08 in WNW 2.1 mph 9 mph 47.8% 0.00 in 46 W/m2
17:19 78.6 °F 57.8 °F 30.08 in WNW 0.7 mph 9 mph 48.8% 0.00 in 49 W/m2
17:24 78.5 °F 56.8 °F 30.08 in NW 1.6 mph 9 mph 47.3% 0.00 in 47 W/m2
17:29 78.5 °F 56.6 °F 30.08 in WNW 2.8 mph 10 mph 47.1% 0.00 in 44 W/m2
17:34 78.4 °F 56.7 °F 30.08 in WNW 2.1 mph 10 mph 47.3% 0.00 in 42 W/m2
17:39 78.4 °F 57.2 °F 30.08 in WNW 1.1 mph 10 mph 48.1% 0.00 in 42 W/m2
17:44 78.5 °F 57.6 °F 30.08 in NW 1.6 mph 10 mph 48.6% 0.00 in 40 W/m2
17:49 78.5 °F 57.3 °F 30.08 in West 0.3 mph 10 mph 48.2% 0.00 in 40 W/m2
17:54 78.4 °F 57.7 °F 30.07 in West 1.5 mph 10 mph 49.1% 0.00 in 39 W/m2
17:59 78.3 °F 56.8 °F 30.08 in WNW 2.3 mph 10 mph 47.6% 0.00 in 39 W/m2
18:04 78.3 °F 56.6 °F 30.08 in NW 2.4 mph 10 mph 47.3% 0.00 in 39 W/m2
18:09 78.2 °F 57.2 °F 30.08 in NW 0.5 mph 10 mph 48.4% 0.00 in 37 W/m2
18:14 78.1 °F 56.8 °F 30.08 in NW 0.9 mph 10 mph 48% 0.00 in 37 W/m2
18:19 77.9 °F 56.9 °F 30.08 in NW 1.1 mph 13 mph 48.4% 0.00 in 37 W/m2
18:24 77.9 °F 56.8 °F 30.08 in NW 1.7 mph 13 mph 48.3% 0.00 in 37 W/m2
18:29 77.8 °F 57 °F 30.08 in NW 0.3 mph 13 mph 48.8% 0.00 in 35 W/m2
18:34 77.8 °F 57.4 °F 30.08 in WNW 1.4 mph 13 mph 49.5% 0.00 in 35 W/m2
18:39 77.8 °F 57.3 °F 30.08 in West 1.3 mph 7 mph 49.3% 0.00 in 35 W/m2
18:44 77.7 °F 57.1 °F 30.08 in WNW 1.3 mph 7 mph 49.2% 0.00 in 33 W/m2
18:49 77.7 °F 57 °F 30.09 in WNW 1 mph 7 mph 49% 0.00 in 33 W/m2
18:54 77.6 °F 57.2 °F 30.09 in WNW 1.2 mph 7 mph 49.3% 0.00 in 32 W/m2
18:58 77.6 °F 57.2 °F 30.09 in Calm   7 mph 49.5% 0.00 in 32 W/m2
19:00 77.6 °F 57 °F 30.09 in WNW 1 mph 8 mph 49% 0.00 in 33 W/m2
19:30 77 °F 56.4 °F 30.09 in Calm   5 mph 49% 0.00 in 27 W/m2
20:04 75.9 °F 57.4 °F 30.10 in Calm   5 mph 52.8% 0.00 in 27 W/m2
20:09 75.7 °F 57.8 °F 30.10 in Calm     53.8% 0.00 in 12 W/m2
20:14 75.5 °F 57.9 °F 30.10 in Calm     54.5% 0.00 in 9 W/m2
20:19 75.2 °F 58.3 °F 30.10 in Calm     55.6% 0.00 in 5 W/m2
20:24 74.9 °F 58.4 °F 30.10 in WNW 0.2 mph 3 mph 56.4% 0.00 in 0 W/m2
20:29 74.6 °F 58.3 °F 30.10 in Calm   3 mph 57% 0.00 in 0 W/m2
20:34 74.2 °F 58.2 °F 30.11 in Calm   3 mph 57.4% 0.00 in 0 W/m2
20:39 73.8 °F 58.3 °F 30.10 in Calm     58.3% 0.00 in 0 W/m2
20:44 73.4 °F 58.2 °F 30.11 in Calm     59% 0.00 in 0 W/m2
20:49 73.1 °F 58.2 °F 30.11 in Calm     59.6% 0.00 in 0 W/m2
20:54 72.8 °F 58.3 °F 30.11 in Calm     60.4% 0.00 in 0 W/m2
20:59 72.4 °F 58.4 °F 30.11 in Calm     61.4% 0.00 in 0 W/m2
21:04 72.1 °F 58.6 °F 30.11 in Calm     62.6% 0.00 in 0 W/m2
21:09 71.7 °F 59.1 °F 30.11 in Calm     64.5% 0.00 in 0 W/m2
21:14 71.2 °F 58.9 °F 30.12 in Calm     65% 0.00 in 0 W/m2
21:19 70.8 °F 58.5 °F 30.12 in Calm     65% 0.00 in 0 W/m2
21:24 70.4 °F 58.1 °F 30.12 in Calm     65% 0.00 in 0 W/m2
21:29 70.1 °F 57.8 °F 30.12 in Calm     65% 0.00 in 0 W/m2
21:34 69.8 °F 57.7 °F 30.12 in Calm     65.4% 0.00 in 0 W/m2
21:39 69.5 °F 57.6 °F 30.12 in Calm     65.8% 0.00 in 0 W/m2
21:44 69.3 °F 57.6 °F 30.12 in Calm     66.3% 0.00 in 0 W/m2
21:49 69 °F 57.6 °F 30.12 in Calm     67% 0.00 in 0 W/m2
21:54 68.8 °F 57.5 °F 30.12 in Calm     67.3% 0.00 in 0 W/m2
21:59 68.5 °F 57.6 °F 30.12 in Calm     68% 0.00 in 0 W/m2
22:04 68.3 °F 57.5 °F 30.13 in Calm     68.4% 0.00 in 0 W/m2
22:09 68.2 °F 57.6 °F 30.13 in Calm     69% 0.00 in 0 W/m2
22:14 68 °F 57.5 °F 30.13 in Calm     69% 0.00 in 0 W/m2
22:19 67.9 °F 57.3 °F 30.13 in Calm     69% 0.00 in 0 W/m2
22:24 67.7 °F 57.3 °F 30.13 in Calm     69.3% 0.00 in 0 W/m2
22:29 67.6 °F 57.5 °F 30.13 in Calm     70% 0.00 in 0 W/m2
22:34 67.4 °F 57.3 °F 30.13 in Calm     70% 0.00 in 0 W/m2
22:39 67.3 °F 57.2 °F 30.13 in Calm     70% 0.00 in 0 W/m2
22:43 67.2 °F 57.1 °F 30.14 in Calm     70% 0.00 in 0 W/m2
Hartford County Weather
Compliments of Weather Underground - 2 mb